sensor_id;sensor_type;location;lat;lon;timestamp;P1;durP1;ratioP1;P2;durP2;ratioP2
33786;SDS011;29742;51.540;9.358;2023-06-24T00:03:36;0.88;;;0.65;;
33786;SDS011;29742;51.540;9.358;2023-06-24T00:08:37;1.55;;;0.90;;
33786;SDS011;29742;51.540;9.358;2023-06-24T00:13:37;1.60;;;1.00;;
33786;SDS011;29742;51.540;9.358;2023-06-24T00:18:38;0.80;;;0.70;;
33786;SDS011;29742;51.540;9.358;2023-06-24T00:23:41;1.43;;;0.83;;
33786;SDS011;29742;51.540;9.358;2023-06-24T00:28:43;1.08;;;0.82;;
33786;SDS011;29742;51.540;9.358;2023-06-24T00:33:43;1.02;;;0.85;;
33786;SDS011;29742;51.540;9.358;2023-06-24T00:38:44;1.65;;;0.90;;
33786;SDS011;29742;51.540;9.358;2023-06-24T00:43:44;1.02;;;0.80;;
33786;SDS011;29742;51.540;9.358;2023-06-24T00:48:45;2.10;;;0.85;;
33786;SDS011;29742;51.540;9.358;2023-06-24T00:53:45;2.35;;;0.60;;
33786;SDS011;29742;51.540;9.358;2023-06-24T00:58:47;1.10;;;1.00;;
33786;SDS011;29742;51.540;9.358;2023-06-24T01:03:48;0.60;;;0.50;;
33786;SDS011;29742;51.540;9.358;2023-06-24T01:08:48;0.88;;;0.77;;
33786;SDS011;29742;51.540;9.358;2023-06-24T01:13:50;1.77;;;1.17;;
33786;SDS011;29742;51.540;9.358;2023-06-24T01:18:52;0.77;;;0.70;;
33786;SDS011;29742;51.540;9.358;2023-06-24T01:24:08;1.17;;;0.93;;
33786;SDS011;29742;51.540;9.358;2023-06-24T01:34:56;0.70;;;0.70;;
33786;SDS011;29742;51.540;9.358;2023-06-24T01:45:16;1.10;;;1.00;;
33786;SDS011;29742;51.540;9.358;2023-06-24T01:50:19;0.70;;;0.65;;
33786;SDS011;29742;51.540;9.358;2023-06-24T01:55:22;1.10;;;0.80;;
33786;SDS011;29742;51.540;9.358;2023-06-24T02:00:23;1.40;;;0.70;;
33786;SDS011;29742;51.540;9.358;2023-06-24T02:05:24;0.60;;;0.60;;
33786;SDS011;29742;51.540;9.358;2023-06-24T02:10:25;1.23;;;1.00;;
33786;SDS011;29742;51.540;9.358;2023-06-24T02:15:26;1.65;;;0.80;;
33786;SDS011;29742;51.540;9.358;2023-06-24T02:20:27;2.35;;;0.70;;
33786;SDS011;29742;51.540;9.358;2023-06-24T02:25:28;0.98;;;0.85;;
33786;SDS011;29742;51.540;9.358;2023-06-24T02:30:28;0.77;;;0.77;;
33786;SDS011;29742;51.540;9.358;2023-06-24T02:35:29;0.75;;;0.65;;
33786;SDS011;29742;51.540;9.358;2023-06-24T02:40:29;0.52;;;0.52;;
33786;SDS011;29742;51.540;9.358;2023-06-24T02:45:30;1.25;;;0.55;;
33786;SDS011;29742;51.540;9.358;2023-06-24T02:50:31;2.00;;;0.68;;
33786;SDS011;29742;51.540;9.358;2023-06-24T02:55:32;0.93;;;0.70;;
33786;SDS011;29742;51.540;9.358;2023-06-24T03:00:33;2.55;;;0.80;;
33786;SDS011;29742;51.540;9.358;2023-06-24T03:05:34;0.50;;;0.45;;
33786;SDS011;29742;51.540;9.358;2023-06-24T03:10:36;1.58;;;0.70;;
33786;SDS011;29742;51.540;9.358;2023-06-24T03:15:37;2.53;;;0.73;;
33786;SDS011;29742;51.540;9.358;2023-06-24T03:20:37;0.73;;;0.65;;
33786;SDS011;29742;51.540;9.358;2023-06-24T03:25:38;1.27;;;0.90;;
33786;SDS011;29742;51.540;9.358;2023-06-24T03:30:39;1.23;;;0.73;;
33786;SDS011;29742;51.540;9.358;2023-06-24T03:35:39;0.60;;;0.55;;
33786;SDS011;29742;51.540;9.358;2023-06-24T03:40:40;0.50;;;0.50;;
33786;SDS011;29742;51.540;9.358;2023-06-24T03:45:40;0.45;;;0.40;;
33786;SDS011;29742;51.540;9.358;2023-06-24T03:50:40;0.40;;;0.40;;
33786;SDS011;29742;51.540;9.358;2023-06-24T03:55:41;0.50;;;0.50;;
33786;SDS011;29742;51.540;9.358;2023-06-24T04:00:41;0.50;;;0.40;;
33786;SDS011;29742;51.540;9.358;2023-06-24T04:05:44;0.80;;;0.70;;
33786;SDS011;29742;51.540;9.358;2023-06-24T04:10:44;0.70;;;0.70;;
33786;SDS011;29742;51.540;9.358;2023-06-24T04:15:45;0.57;;;0.50;;
33786;SDS011;29742;51.540;9.358;2023-06-24T04:20:45;0.82;;;0.40;;
33786;SDS011;29742;51.540;9.358;2023-06-24T04:25:46;1.00;;;0.68;;
33786;SDS011;29742;51.540;9.358;2023-06-24T04:30:47;0.60;;;0.60;;
33786;SDS011;29742;51.540;9.358;2023-06-24T04:35:47;0.52;;;0.52;;
33786;SDS011;29742;51.540;9.358;2023-06-24T04:40:47;0.60;;;0.50;;
33786;SDS011;29742;51.540;9.358;2023-06-24T04:45:48;0.90;;;0.63;;
33786;SDS011;29742;51.540;9.358;2023-06-24T04:50:48;0.85;;;0.32;;
33786;SDS011;29742;51.540;9.358;2023-06-24T04:55:49;1.13;;;0.63;;
33786;SDS011;29742;51.540;9.358;2023-06-24T05:00:49;0.35;;;0.35;;
33786;SDS011;29742;51.540;9.358;2023-06-24T05:05:49;0.45;;;0.45;;
33786;SDS011;29742;51.540;9.358;2023-06-24T05:10:50;0.52;;;0.40;;
33786;SDS011;29742;51.540;9.358;2023-06-24T05:15:50;0.50;;;0.50;;
33786;SDS011;29742;51.540;9.358;2023-06-24T05:20:50;0.38;;;0.22;;
33786;SDS011;29742;51.540;9.358;2023-06-24T05:25:51;0.60;;;0.43;;
33786;SDS011;29742;51.540;9.358;2023-06-24T05:30:51;0.40;;;0.40;;
33786;SDS011;29742;51.540;9.358;2023-06-24T05:35:52;0.63;;;0.55;;
33786;SDS011;29742;51.540;9.358;2023-06-24T05:40:52;0.65;;;0.50;;
33786;SDS011;29742;51.540;9.358;2023-06-24T05:45:52;0.40;;;0.30;;
33786;SDS011;29742;51.540;9.358;2023-06-24T05:50:53;0.50;;;0.50;;
33786;SDS011;29742;51.540;9.358;2023-06-24T05:55:53;0.45;;;0.40;;
33786;SDS011;29742;51.540;9.358;2023-06-24T06:00:54;0.30;;;0.30;;
33786;SDS011;29742;51.540;9.358;2023-06-24T06:05:55;0.20;;;0.20;;
33786;SDS011;29742;51.540;9.358;2023-06-24T06:10:55;0.30;;;0.30;;
33786;SDS011;29742;51.540;9.358;2023-06-24T06:15:56;0.77;;;0.45;;
33786;SDS011;29742;51.540;9.358;2023-06-24T06:20:57;0.50;;;0.40;;
33786;SDS011;29742;51.540;9.358;2023-06-24T06:25:57;0.55;;;0.38;;
33786;SDS011;29742;51.540;9.358;2023-06-24T06:30:57;0.80;;;0.70;;
33786;SDS011;29742;51.540;9.358;2023-06-24T06:35:58;0.65;;;0.43;;
33786;SDS011;29742;51.540;9.358;2023-06-24T06:40:59;0.82;;;0.60;;
33786;SDS011;29742;51.540;9.358;2023-06-24T06:45:59;0.50;;;0.50;;
33786;SDS011;29742;51.540;9.358;2023-06-24T06:51:00;2.13;;;0.60;;
33786;SDS011;29742;51.540;9.358;2023-06-24T06:56:00;0.73;;;0.55;;
33786;SDS011;29742;51.540;9.358;2023-06-24T07:01:00;2.83;;;1.00;;
33786;SDS011;29742;51.540;9.358;2023-06-24T07:06:05;2.60;;;0.95;;
33786;SDS011;29742;51.540;9.358;2023-06-24T07:11:05;0.98;;;0.60;;
33786;SDS011;29742;51.540;9.358;2023-06-24T07:16:06;1.63;;;0.90;;
33786;SDS011;29742;51.540;9.358;2023-06-24T07:21:06;3.35;;;1.15;;
33786;SDS011;29742;51.540;9.358;2023-06-24T07:26:06;2.08;;;1.00;;
33786;SDS011;29742;51.540;9.358;2023-06-24T07:31:07;1.27;;;1.02;;
33786;SDS011;29742;51.540;9.358;2023-06-24T07:36:07;4.10;;;1.08;;
33786;SDS011;29742;51.540;9.358;2023-06-24T07:41:07;2.13;;;0.90;;
33786;SDS011;29742;51.540;9.358;2023-06-24T07:46:08;0.82;;;0.70;;
33786;SDS011;29742;51.540;9.358;2023-06-24T07:51:08;3.15;;;0.93;;
33786;SDS011;29742;51.540;9.358;2023-06-24T07:56:09;1.02;;;0.80;;
33786;SDS011;29742;51.540;9.358;2023-06-24T08:01:09;1.73;;;1.00;;
33786;SDS011;29742;51.540;9.358;2023-06-24T08:06:10;1.08;;;0.73;;
33786;SDS011;29742;51.540;9.358;2023-06-24T08:11:10;1.52;;;1.00;;
33786;SDS011;29742;51.540;9.358;2023-06-24T08:16:10;1.40;;;0.93;;
33786;SDS011;29742;51.540;9.358;2023-06-24T08:21:11;1.63;;;1.08;;
33786;SDS011;29742;51.540;9.358;2023-06-24T08:26:11;1.63;;;0.93;;
33786;SDS011;29742;51.540;9.358;2023-06-24T08:31:12;1.75;;;0.68;;
33786;SDS011;29742;51.540;9.358;2023-06-24T08:36:12;1.13;;;1.00;;
33786;SDS011;29742;51.540;9.358;2023-06-24T08:41:13;1.63;;;1.00;;
33786;SDS011;29742;51.540;9.358;2023-06-24T08:46:13;1.98;;;1.23;;
33786;SDS011;29742;51.540;9.358;2023-06-24T08:51:17;1.40;;;1.02;;
33786;SDS011;29742;51.540;9.358;2023-06-24T08:56:18;1.65;;;0.73;;
33786;SDS011;29742;51.540;9.358;2023-06-24T09:01:19;1.70;;;1.15;;
33786;SDS011;29742;51.540;9.358;2023-06-24T09:06:19;1.42;;;0.93;;
33786;SDS011;29742;51.540;9.358;2023-06-24T09:11:26;1.25;;;0.80;;
33786;SDS011;29742;51.540;9.358;2023-06-24T09:16:27;1.83;;;1.00;;
33786;SDS011;29742;51.540;9.358;2023-06-24T09:21:29;1.55;;;0.82;;
33786;SDS011;29742;51.540;9.358;2023-06-24T09:26:30;0.98;;;0.73;;
33786;SDS011;29742;51.540;9.358;2023-06-24T09:31:31;1.00;;;0.90;;
33786;SDS011;29742;51.540;9.358;2023-06-24T09:36:31;1.60;;;0.93;;
33786;SDS011;29742;51.540;9.358;2023-06-24T09:41:32;2.13;;;1.02;;
33786;SDS011;29742;51.540;9.358;2023-06-24T09:46:32;0.85;;;0.70;;
33786;SDS011;29742;51.540;9.358;2023-06-24T09:51:37;1.50;;;0.90;;
33786;SDS011;29742;51.540;9.358;2023-06-24T09:57:11;4.28;;;0.73;;
33786;SDS011;29742;51.540;9.358;2023-06-24T10:02:05;3.70;;;1.17;;
33786;SDS011;29742;51.540;9.358;2023-06-24T10:07:08;2.50;;;0.93;;
33786;SDS011;29742;51.540;9.358;2023-06-24T10:12:09;1.42;;;0.98;;
33786;SDS011;29742;51.540;9.358;2023-06-24T10:17:09;2.38;;;1.13;;
33786;SDS011;29742;51.540;9.358;2023-06-24T10:22:11;1.45;;;0.90;;
33786;SDS011;29742;51.540;9.358;2023-06-24T10:27:15;1.90;;;0.95;;
33786;SDS011;29742;51.540;9.358;2023-06-24T10:32:21;2.97;;;1.27;;
33786;SDS011;29742;51.540;9.358;2023-06-24T10:37:25;2.50;;;1.33;;
33786;SDS011;29742;51.540;9.358;2023-06-24T10:42:27;1.67;;;1.17;;
33786;SDS011;29742;51.540;9.358;2023-06-24T10:47:29;1.77;;;1.08;;
33786;SDS011;29742;51.540;9.358;2023-06-24T10:52:30;1.98;;;0.95;;
33786;SDS011;29742;51.540;9.358;2023-06-24T10:57:30;3.50;;;1.48;;
33786;SDS011;29742;51.540;9.358;2023-06-24T11:02:31;0.88;;;0.73;;
33786;SDS011;29742;51.540;9.358;2023-06-24T11:07:32;2.33;;;1.30;;
33786;SDS011;29742;51.540;9.358;2023-06-24T11:12:34;4.10;;;1.30;;
33786;SDS011;29742;51.540;9.358;2023-06-24T11:17:36;3.17;;;1.08;;
33786;SDS011;29742;51.540;9.358;2023-06-24T11:22:37;1.77;;;0.98;;
33786;SDS011;29742;51.540;9.358;2023-06-24T11:27:39;1.50;;;1.08;;
33786;SDS011;29742;51.540;9.358;2023-06-24T11:32:40;1.98;;;1.23;;
33786;SDS011;29742;51.540;9.358;2023-06-24T11:37:42;2.60;;;1.20;;
33786;SDS011;29742;51.540;9.358;2023-06-24T11:42:43;3.40;;;1.23;;
33786;SDS011;29742;51.540;9.358;2023-06-24T11:47:44;2.35;;;1.40;;
33786;SDS011;29742;51.540;9.358;2023-06-24T11:52:46;2.15;;;1.40;;
33786;SDS011;29742;51.540;9.358;2023-06-24T12:03:07;2.85;;;1.60;;
33786;SDS011;29742;51.540;9.358;2023-06-24T12:08:10;3.22;;;1.23;;
33786;SDS011;29742;51.540;9.358;2023-06-24T12:13:11;3.38;;;1.25;;
33786;SDS011;29742;51.540;9.358;2023-06-24T12:18:12;3.65;;;1.65;;
33786;SDS011;29742;51.540;9.358;2023-06-24T12:23:12;1.30;;;0.88;;
33786;SDS011;29742;51.540;9.358;2023-06-24T12:28:12;2.03;;;1.42;;
33786;SDS011;29742;51.540;9.358;2023-06-24T12:33:13;2.47;;;1.17;;
33786;SDS011;29742;51.540;9.358;2023-06-24T12:38:13;3.85;;;1.48;;
33786;SDS011;29742;51.540;9.358;2023-06-24T12:43:14;2.92;;;1.67;;
33786;SDS011;29742;51.540;9.358;2023-06-24T12:48:14;2.60;;;1.50;;
33786;SDS011;29742;51.540;9.358;2023-06-24T12:53:15;3.05;;;1.67;;
33786;SDS011;29742;51.540;9.358;2023-06-24T12:58:18;2.72;;;1.60;;
33786;SDS011;29742;51.540;9.358;2023-06-24T13:03:19;1.55;;;1.13;;
33786;SDS011;29742;51.540;9.358;2023-06-24T13:08:19;2.35;;;1.73;;
33786;SDS011;29742;51.540;9.358;2023-06-24T13:13:20;2.20;;;1.35;;
33786;SDS011;29742;51.540;9.358;2023-06-24T13:18:20;2.35;;;1.55;;
33786;SDS011;29742;51.540;9.358;2023-06-24T13:23:21;3.70;;;1.50;;
33786;SDS011;29742;51.540;9.358;2023-06-24T13:28:22;3.80;;;1.83;;
33786;SDS011;29742;51.540;9.358;2023-06-24T13:33:22;2.03;;;1.48;;
33786;SDS011;29742;51.540;9.358;2023-06-24T13:38:22;3.33;;;2.03;;
33786;SDS011;29742;51.540;9.358;2023-06-24T13:43:23;2.60;;;1.60;;
33786;SDS011;29742;51.540;9.358;2023-06-24T13:48:23;3.78;;;1.50;;
33786;SDS011;29742;51.540;9.358;2023-06-24T13:53:24;2.10;;;1.27;;
33786;SDS011;29742;51.540;9.358;2023-06-24T13:58:24;1.63;;;1.25;;
33786;SDS011;29742;51.540;9.358;2023-06-24T14:03:24;2.40;;;1.88;;
33786;SDS011;29742;51.540;9.358;2023-06-24T14:08:25;2.22;;;1.23;;
33786;SDS011;29742;51.540;9.358;2023-06-24T14:13:26;2.88;;;1.48;;
33786;SDS011;29742;51.540;9.358;2023-06-24T14:18:26;3.38;;;1.70;;
33786;SDS011;29742;51.540;9.358;2023-06-24T14:23:27;2.45;;;1.65;;
33786;SDS011;29742;51.540;9.358;2023-06-24T14:28:28;2.40;;;1.25;;
33786;SDS011;29742;51.540;9.358;2023-06-24T14:33:29;2.58;;;1.55;;
33786;SDS011;29742;51.540;9.358;2023-06-24T14:38:29;2.17;;;1.48;;
33786;SDS011;29742;51.540;9.358;2023-06-24T14:43:29;3.55;;;1.40;;
33786;SDS011;29742;51.540;9.358;2023-06-24T14:48:30;3.83;;;1.95;;
33786;SDS011;29742;51.540;9.358;2023-06-24T14:53:30;1.80;;;1.17;;
33786;SDS011;29742;51.540;9.358;2023-06-24T14:58:31;2.13;;;1.17;;
33786;SDS011;29742;51.540;9.358;2023-06-24T15:03:31;2.42;;;1.35;;
33786;SDS011;29742;51.540;9.358;2023-06-24T15:08:31;2.95;;;1.58;;
33786;SDS011;29742;51.540;9.358;2023-06-24T15:13:32;3.38;;;1.70;;
33786;SDS011;29742;51.540;9.358;2023-06-24T15:18:32;2.42;;;1.50;;
33786;SDS011;29742;51.540;9.358;2023-06-24T15:23:33;2.40;;;1.45;;
33786;SDS011;29742;51.540;9.358;2023-06-24T15:28:33;2.47;;;1.50;;
33786;SDS011;29742;51.540;9.358;2023-06-24T15:33:33;2.17;;;1.40;;
33786;SDS011;29742;51.540;9.358;2023-06-24T15:38:34;2.13;;;1.08;;
33786;SDS011;29742;51.540;9.358;2023-06-24T15:43:34;2.50;;;1.50;;
33786;SDS011;29742;51.540;9.358;2023-06-24T15:48:34;1.45;;;1.20;;
33786;SDS011;29742;51.540;9.358;2023-06-24T15:53:36;1.73;;;1.10;;
33786;SDS011;29742;51.540;9.358;2023-06-24T15:58:37;2.40;;;0.98;;
33786;SDS011;29742;51.540;9.358;2023-06-24T16:03:37;2.47;;;1.08;;
33786;SDS011;29742;51.540;9.358;2023-06-24T16:08:39;1.90;;;1.33;;
33786;SDS011;29742;51.540;9.358;2023-06-24T16:13:39;1.88;;;1.23;;
33786;SDS011;29742;51.540;9.358;2023-06-24T16:18:39;1.98;;;1.60;;
33786;SDS011;29742;51.540;9.358;2023-06-24T16:23:40;1.60;;;1.23;;
33786;SDS011;29742;51.540;9.358;2023-06-24T16:28:41;1.45;;;1.02;;
33786;SDS011;29742;51.540;9.358;2023-06-24T16:33:41;1.85;;;1.25;;
33786;SDS011;29742;51.540;9.358;2023-06-24T16:38:41;2.28;;;1.30;;
33786;SDS011;29742;51.540;9.358;2023-06-24T16:43:45;1.70;;;1.40;;
33786;SDS011;29742;51.540;9.358;2023-06-24T16:48:47;1.85;;;1.42;;
33786;SDS011;29742;51.540;9.358;2023-06-24T16:53:47;1.48;;;1.17;;
33786;SDS011;29742;51.540;9.358;2023-06-24T16:58:47;1.48;;;1.30;;
33786;SDS011;29742;51.540;9.358;2023-06-24T17:03:48;2.20;;;1.45;;
33786;SDS011;29742;51.540;9.358;2023-06-24T17:08:48;2.75;;;1.23;;
33786;SDS011;29742;51.540;9.358;2023-06-24T17:13:49;2.78;;;1.45;;
33786;SDS011;29742;51.540;9.358;2023-06-24T17:18:49;3.15;;;1.25;;
33786;SDS011;29742;51.540;9.358;2023-06-24T17:23:49;2.05;;;1.35;;
33786;SDS011;29742;51.540;9.358;2023-06-24T17:28:50;2.63;;;1.25;;
33786;SDS011;29742;51.540;9.358;2023-06-24T17:33:50;2.20;;;1.38;;
33786;SDS011;29742;51.540;9.358;2023-06-24T17:38:50;1.10;;;0.85;;
33786;SDS011;29742;51.540;9.358;2023-06-24T17:43:51;1.50;;;1.08;;
33786;SDS011;29742;51.540;9.358;2023-06-24T17:48:51;1.50;;;1.23;;
33786;SDS011;29742;51.540;9.358;2023-06-24T17:53:52;2.22;;;1.27;;
33786;SDS011;29742;51.540;9.358;2023-06-24T17:58:52;1.55;;;1.25;;
33786;SDS011;29742;51.540;9.358;2023-06-24T18:03:52;1.92;;;1.45;;
33786;SDS011;29742;51.540;9.358;2023-06-24T18:08:53;2.42;;;1.15;;
33786;SDS011;29742;51.540;9.358;2023-06-24T18:13:53;0.85;;;0.73;;
33786;SDS011;29742;51.540;9.358;2023-06-24T18:18:54;2.97;;;1.50;;
33786;SDS011;29742;51.540;9.358;2023-06-24T18:23:54;2.88;;;1.20;;
33786;SDS011;29742;51.540;9.358;2023-06-24T18:28:55;1.10;;;0.95;;
33786;SDS011;29742;51.540;9.358;2023-06-24T18:33:56;1.75;;;1.15;;
33786;SDS011;29742;51.540;9.358;2023-06-24T18:38:56;1.65;;;1.30;;
33786;SDS011;29742;51.540;9.358;2023-06-24T18:43:57;2.33;;;1.17;;
33786;SDS011;29742;51.540;9.358;2023-06-24T18:48:57;2.25;;;1.23;;
33786;SDS011;29742;51.540;9.358;2023-06-24T18:53:58;1.58;;;1.20;;
33786;SDS011;29742;51.540;9.358;2023-06-24T18:58:58;3.92;;;1.27;;
33786;SDS011;29742;51.540;9.358;2023-06-24T19:03:58;3.15;;;1.55;;
33786;SDS011;29742;51.540;9.358;2023-06-24T19:08:59;3.03;;;1.58;;
33786;SDS011;29742;51.540;9.358;2023-06-24T19:13:59;1.58;;;1.08;;
33786;SDS011;29742;51.540;9.358;2023-06-24T19:18:59;1.92;;;1.10;;
33786;SDS011;29742;51.540;9.358;2023-06-24T19:24:01;1.33;;;0.90;;
33786;SDS011;29742;51.540;9.358;2023-06-24T19:29:02;1.45;;;1.17;;
33786;SDS011;29742;51.540;9.358;2023-06-24T19:34:03;1.83;;;1.27;;
33786;SDS011;29742;51.540;9.358;2023-06-24T19:39:03;2.00;;;0.90;;
33786;SDS011;29742;51.540;9.358;2023-06-24T19:44:04;1.75;;;1.45;;
33786;SDS011;29742;51.540;9.358;2023-06-24T19:49:05;2.25;;;1.38;;
33786;SDS011;29742;51.540;9.358;2023-06-24T19:54:06;2.30;;;1.38;;
33786;SDS011;29742;51.540;9.358;2023-06-24T19:59:06;1.58;;;1.38;;
33786;SDS011;29742;51.540;9.358;2023-06-24T20:04:06;1.55;;;1.45;;
33786;SDS011;29742;51.540;9.358;2023-06-24T20:09:07;1.30;;;1.20;;
33786;SDS011;29742;51.540;9.358;2023-06-24T20:14:07;1.33;;;1.23;;
33786;SDS011;29742;51.540;9.358;2023-06-24T20:19:08;2.00;;;1.42;;
33786;SDS011;29742;51.540;9.358;2023-06-24T20:24:08;2.25;;;1.60;;
33786;SDS011;29742;51.540;9.358;2023-06-24T20:29:09;1.85;;;1.30;;
33786;SDS011;29742;51.540;9.358;2023-06-24T20:34:10;1.40;;;1.30;;
33786;SDS011;29742;51.540;9.358;2023-06-24T20:39:10;1.85;;;1.50;;
33786;SDS011;29742;51.540;9.358;2023-06-24T20:44:12;1.80;;;1.45;;
33786;SDS011;29742;51.540;9.358;2023-06-24T20:49:12;1.45;;;1.33;;
33786;SDS011;29742;51.540;9.358;2023-06-24T20:54:13;1.30;;;1.08;;
33786;SDS011;29742;51.540;9.358;2023-06-24T20:59:14;1.67;;;1.38;;
33786;SDS011;29742;51.540;9.358;2023-06-24T21:04:14;1.45;;;1.23;;
33786;SDS011;29742;51.540;9.358;2023-06-24T21:09:15;1.30;;;1.17;;
33786;SDS011;29742;51.540;9.358;2023-06-24T21:14:16;1.10;;;0.98;;
33786;SDS011;29742;51.540;9.358;2023-06-24T21:19:16;1.80;;;1.38;;
33786;SDS011;29742;51.540;9.358;2023-06-24T21:24:16;4.55;;;1.70;;
33786;SDS011;29742;51.540;9.358;2023-06-24T21:29:17;1.40;;;1.13;;
33786;SDS011;29742;51.540;9.358;2023-06-24T21:34:17;1.33;;;1.23;;
33786;SDS011;29742;51.540;9.358;2023-06-24T21:39:18;1.48;;;1.30;;
33786;SDS011;29742;51.540;9.358;2023-06-24T21:44:18;1.30;;;1.05;;
33786;SDS011;29742;51.540;9.358;2023-06-24T21:49:19;1.95;;;1.40;;
33786;SDS011;29742;51.540;9.358;2023-06-24T21:54:19;1.83;;;1.63;;
33786;SDS011;29742;51.540;9.358;2023-06-24T21:59:19;1.73;;;1.45;;
33786;SDS011;29742;51.540;9.358;2023-06-24T22:04:20;3.30;;;1.33;;
33786;SDS011;29742;51.540;9.358;2023-06-24T22:09:20;1.60;;;1.23;;
33786;SDS011;29742;51.540;9.358;2023-06-24T22:14:21;1.40;;;1.30;;
33786;SDS011;29742;51.540;9.358;2023-06-24T22:19:21;1.58;;;1.40;;
33786;SDS011;29742;51.540;9.358;2023-06-24T22:24:21;1.27;;;1.08;;
33786;SDS011;29742;51.540;9.358;2023-06-24T22:29:22;1.08;;;0.98;;
33786;SDS011;29742;51.540;9.358;2023-06-24T22:34:22;1.50;;;1.15;;
33786;SDS011;29742;51.540;9.358;2023-06-24T22:39:23;1.90;;;1.40;;
33786;SDS011;29742;51.540;9.358;2023-06-24T22:44:23;1.27;;;1.15;;
33786;SDS011;29742;51.540;9.358;2023-06-24T22:49:23;1.65;;;1.33;;
33786;SDS011;29742;51.540;9.358;2023-06-24T22:54:24;2.13;;;1.63;;
33786;SDS011;29742;51.540;9.358;2023-06-24T22:59:25;1.73;;;1.48;;
33786;SDS011;29742;51.540;9.358;2023-06-24T23:04:25;1.67;;;1.23;;
33786;SDS011;29742;51.540;9.358;2023-06-24T23:09:26;1.42;;;1.33;;
33786;SDS011;29742;51.540;9.358;2023-06-24T23:14:27;1.30;;;1.20;;
33786;SDS011;29742;51.540;9.358;2023-06-24T23:19:28;1.65;;;1.27;;
33786;SDS011;29742;51.540;9.358;2023-06-24T23:24:29;1.58;;;1.20;;
33786;SDS011;29742;51.540;9.358;2023-06-24T23:29:31;1.75;;;1.40;;
33786;SDS011;29742;51.540;9.358;2023-06-24T23:34:36;0.90;;;0.90;;
33786;SDS011;29742;51.540;9.358;2023-06-24T23:39:37;1.30;;;1.13;;
33786;SDS011;29742;51.540;9.358;2023-06-24T23:44:38;1.40;;;1.30;;
33786;SDS011;29742;51.540;9.358;2023-06-24T23:49:38;1.27;;;1.17;;
33786;SDS011;29742;51.540;9.358;2023-06-24T23:54:39;2.17;;;1.40;;
33786;SDS011;29742;51.540;9.358;2023-06-24T23:59:39;4.28;;;1.23;;
